Time;durP1;ratioP1;P1;durP2;ratioP2;P2;SDS_P1;SDS_P2;PMS_P1;PMS_P2;Temp;Humidity;BMP_temperature;BMP_pressure;BME280_temperature;BME280_humidity;BME280_pressure;Samples;Min_cycle;Max_cycle;Signal;HPM_P1;HPM_P2
2021/12/24 00:00:58;;;;;;;44.30;19.25;;;10.30;89.70;;;;;;5040105;28;20036;-80
2021/12/24 00:03:24;;;;;;;40.42;19.10;;;10.30;89.70;;;;;;5056068;28;20044;-80
2021/12/24 00:05:50;;;;;;;44.15;18.65;;;10.30;89.70;;;;;;5054529;28;20025;-80
2021/12/24 00:08:18;;;;;;;37.75;17.65;;;10.30;89.80;;;;;;5056299;28;20025;-79
2021/12/24 00:10:48;;;;;;;34.92;16.08;;;10.20;90.20;;;;;;5048874;28;20684;-80
2021/12/24 00:13:15;;;;;;;45.35;19.25;;;10.20;90.30;;;;;;5035030;28;20100;-80
2021/12/24 00:18:43;;;;;;;46.70;21.02;;;10.20;90.20;;;;;;5034767;28;20453;-80
2021/12/24 00:37:07;;;;;;;43.97;21.48;;;10.20;90.10;;;;;;5035796;28;20083;-80
2021/12/24 00:39:37;;;;;;;39.42;19.55;;;10.30;90.10;;;;;;5034804;28;20026;-80
2021/12/24 00:42:14;;;;;;;44.72;20.90;;;10.30;90.00;;;;;;5035033;28;20031;-80
2021/12/24 00:44:39;;;;;;;54.13;21.80;;;10.30;89.90;;;;;;5035524;28;20112;-80
2021/12/24 00:47:05;;;;;;;48.13;19.27;;;10.30;89.80;;;;;;5034385;28;20056;-80
2021/12/24 00:49:31;;;;;;;42.38;19.38;;;10.40;89.70;;;;;;5051660;28;20058;-80
2021/12/24 00:57:25;;;;;;;46.30;19.65;;;10.40;89.60;;;;;;5037558;28;20049;-80
2021/12/24 00:59:51;;;;;;;51.15;21.40;;;10.40;89.60;;;;;;5036121;28;20034;-80
2021/12/24 01:02:16;;;;;;;54.17;20.10;;;10.50;89.40;;;;;;5061143;28;20041;-80
2021/12/24 01:05:05;;;;;;;46.58;20.15;;;10.50;89.40;;;;;;5033238;28;20037;-80
2021/12/24 01:07:30;;;;;;;46.08;20.27;;;10.40;89.30;;;;;;5050201;28;20033;-80
2021/12/24 01:09:57;;;;;;;54.67;21.80;;;10.50;89.30;;;;;;5048772;28;20028;-80
2021/12/24 01:12:24;;;;;;;49.67;21.35;;;10.50;89.20;;;;;;5044523;28;20117;-80
2021/12/24 01:14:50;;;;;;;49.88;22.90;;;10.50;89.20;;;;;;5034231;28;20042;-80
2021/12/24 01:17:41;;;;;;;59.10;21.30;;;10.50;89.20;;;;;;5035943;28;20057;-80
2021/12/24 01:21:07;;;;;;;52.95;22.33;;;10.40;89.30;;;;;;5038323;28;20088;-80
2021/12/24 01:25:53;;;;;;;47.03;19.60;;;10.40;89.40;;;;;;5040962;28;20024;-80
2021/12/24 01:28:46;;;;;;;45.13;20.00;;;10.30;89.50;;;;;;5056328;28;20074;-80
2021/12/24 01:39:54;;;;;;;48.20;21.05;;;10.30;89.50;;;;;;5039577;28;20113;-80
2021/12/24 01:42:42;;;;;;;49.60;17.80;;;10.30;89.70;;;;;;5038152;28;20025;-79
2021/12/24 01:45:14;;;;;;;61.42;20.13;;;10.30;89.70;;;;;;5039388;28;20075;-80
2021/12/24 01:47:39;;;;;;;44.45;18.75;;;10.30;89.60;;;;;;5038247;28;20541;-80
2021/12/24 01:50:06;;;;;;;53.30;21.15;;;10.30;89.50;;;;;;5038009;28;20017;-80
2021/12/24 01:52:31;;;;;;;48.95;20.02;;;10.30;89.70;;;;;;5039494;28;20030;-80
2021/12/24 01:54:57;;;;;;;64.00;23.13;;;10.30;89.70;;;;;;5041664;28;20040;-80
2021/12/24 01:57:23;;;;;;;66.00;20.98;;;10.30;89.70;;;;;;5038967;28;20055;-80
2021/12/24 01:59:49;;;;;;;43.17;18.58;;;10.30;89.80;;;;;;5037795;28;20117;-80
2021/12/24 02:02:14;;;;;;;41.90;19.63;;;10.30;89.80;;;;;;5039250;28;20029;-80
2021/12/24 02:04:40;;;;;;;43.90;17.45;;;10.30;90.10;;;;;;5037801;28;20036;-80
2021/12/24 02:07:06;;;;;;;50.30;21.13;;;10.30;89.90;;;;;;5037529;28;20033;-80
2021/12/24 02:09:34;;;;;;;54.75;19.88;;;10.30;90.20;;;;;;5043779;28;20025;-80
2021/12/24 02:12:00;;;;;;;52.63;20.40;;;10.30;90.00;;;;;;5037541;28;20021;-80
2021/12/24 02:14:33;;;;;;;39.70;15.27;;;10.30;90.10;;;;;;5038412;28;20030;-80
2021/12/24 02:30:41;;;;;;;51.17;18.77;;;10.30;90.30;;;;;;5037945;28;20467;-79
2021/12/24 02:33:06;;;;;;;47.17;15.63;;;10.30;90.50;;;;;;5036980;28;20534;-80
2021/12/24 02:35:33;;;;;;;62.08;19.20;;;10.30;90.30;;;;;;5037142;28;20048;-80
2021/12/24 02:38:00;;;;;;;46.63;17.70;;;10.30;90.50;;;;;;5038185;28;20104;-80
2021/12/24 02:40:27;;;;;;;47.35;18.88;;;10.30;90.30;;;;;;5037390;28;20033;-80
2021/12/24 02:42:55;;;;;;;45.50;17.27;;;10.20;90.60;;;;;;5038113;28;20028;-79
2021/12/24 02:45:23;;;;;;;63.58;21.23;;;10.20;90.60;;;;;;5036833;28;20029;-80
2021/12/24 02:56:04;;;;;;;49.38;17.88;;;10.20;90.80;;;;;;5036820;28;20458;-79
2021/12/24 02:58:49;;;;;;;46.33;17.92;;;10.20;91.00;;;;;;5036634;28;20025;-80
2021/12/24 03:01:19;;;;;;;43.90;16.60;;;10.30;90.90;;;;;;5037270;28;20029;-79
2021/12/24 03:03:48;;;;;;;42.83;17.25;;;10.20;90.60;;;;;;5035666;28;20034;-80
2021/12/24 03:06:15;;;;;;;50.75;17.27;;;10.20;90.80;;;;;;5037791;28;20034;-80
2021/12/24 03:08:41;;;;;;;50.35;18.23;;;10.30;90.90;;;;;;5055571;28;20021;-80
2021/12/24 03:11:07;;;;;;;51.15;18.10;;;10.30;90.70;;;;;;5043476;28;20120;-79
2021/12/24 03:13:34;;;;;;;45.33;15.13;;;10.30;90.90;;;;;;5036703;28;20379;-80
2021/12/24 03:16:05;;;;;;;55.13;16.38;;;10.30;90.80;;;;;;5035785;28;20029;-80
2021/12/24 03:18:34;;;;;;;46.70;15.93;;;10.30;90.80;;;;;;5036571;28;20033;-80
2021/12/24 03:23:39;;;;;;;76.00;18.88;;;10.30;91.00;;;;;;5056290;28;20247;-80
2021/12/24 03:26:06;;;;;;;33.50;14.75;;;10.30;91.00;;;;;;5056033;28;20108;-79
2021/12/24 03:28:32;;;;;;;59.38;15.02;;;10.30;91.00;;;;;;5057220;28;20367;-79
2021/12/24 03:30:59;;;;;;;63.58;17.85;;;10.30;91.10;;;;;;5037458;28;20030;-80
2021/12/24 03:33:25;;;;;;;57.58;16.50;;;10.30;91.00;;;;;;5037150;28;20124;-79
2021/12/24 03:35:51;;;;;;;59.70;15.73;;;10.30;91.00;;;;;;5036346;28;20037;-80
2021/12/24 03:38:16;;;;;;;54.53;17.35;;;10.30;90.80;;;;;;5035981;28;20036;-80
2021/12/24 03:40:42;;;;;;;61.22;16.98;;;10.40;90.90;;;;;;5036757;28;20091;-80
2021/12/24 03:43:08;;;;;;;52.38;16.75;;;10.50;90.80;;;;;;5035836;28;20022;-80
2021/12/24 03:45:42;;;;;;;56.28;16.15;;;10.40;90.70;;;;;;5035887;28;20033;-79
2021/12/24 03:48:17;;;;;;;48.90;16.17;;;10.40;91.00;;;;;;5035882;28;20505;-80
2021/12/24 03:50:56;;;;;;;61.75;17.98;;;10.40;90.90;;;;;;5037309;28;20017;-80
2021/12/24 03:56:06;;;;;;;65.30;16.50;;;10.50;90.80;;;;;;5036602;28;20473;-79
2021/12/24 03:58:32;;;;;;;55.45;17.10;;;10.50;90.70;;;;;;5035626;28;20075;-79
2021/12/24 04:00:58;;;;;;;56.63;17.48;;;10.50;90.80;;;;;;5035643;28;20033;-80
2021/12/24 04:03:24;;;;;;;44.33;16.50;;;10.60;90.70;;;;;;5036910;28;20056;-80
2021/12/24 04:05:49;;;;;;;59.40;17.33;;;10.60;90.50;;;;;;5035430;28;20482;-79
2021/12/24 04:08:15;;;;;;;51.88;16.67;;;10.60;90.30;;;;;;5036720;28;20530;-79
2021/12/24 04:10:41;;;;;;;36.95;15.07;;;10.60;90.10;;;;;;5055558;28;20162;-79
2021/12/24 04:13:13;;;;;;;41.83;15.02;;;10.60;90.30;;;;;;5042520;28;20057;-79
2021/12/24 04:15:39;;;;;;;43.40;16.55;;;10.60;90.40;;;;;;5035298;28;20025;-79
2021/12/24 04:18:33;;;;;;;;;;;;;;;;;;;;;
2021/12/24 04:26:31;;;;;;;48.10;14.95;;;10.50;90.50;;;;;;5036333;28;20111;-79
2021/12/24 04:28:57;;;;;;;51.95;14.98;;;10.50;90.30;;;;;;5035334;28;20743;-80
2021/12/24 04:31:31;;;;;;;33.03;14.18;;;10.60;90.20;;;;;;5035900;28;20038;-79
2021/12/24 04:34:00;;;;;;;43.03;13.73;;;10.50;90.50;;;;;;5035126;28;20387;-79
2021/12/24 05:01:10;;;;;;;39.20;12.98;;;10.60;90.40;;;;;;5035450;28;20040;-80
2021/12/24 05:01:45;;;;;;;37.58;12.60;;;10.60;90.40;;;;;;5038940;28;20056;-79
2021/12/24 05:04:06;;;;;;;29.60;11.57;;;10.60;90.50;;;;;;5041588;28;20049;-79
2021/12/24 05:06:37;;;;;;;35.15;12.52;;;10.60;90.50;;;;;;5059150;28;20100;-80
2021/12/24 05:09:11;;;;;;;31.67;12.05;;;10.50;90.70;;;;;;5058089;28;20112;-79
2021/12/24 05:11:37;;;;;;;38.55;12.60;;;10.60;90.80;;;;;;5059804;28;20482;-79
2021/12/24 05:14:04;;;;;;;40.80;13.45;;;10.60;90.70;;;;;;5058689;28;20025;-79
2021/12/24 05:16:45;;;;;;;41.97;13.57;;;10.70;90.70;;;;;;5042601;28;20033;-79
2021/12/24 05:21:55;;;;;;;40.65;14.18;;;10.60;90.40;;;;;;5039423;28;20037;-79
2021/12/24 05:24:23;;;;;;;39.58;12.23;;;10.70;90.50;;;;;;5038718;28;20033;-79
2021/12/24 05:26:58;;;;;;;35.95;11.02;;;10.70;90.50;;;;;;5054283;28;20029;-80
2021/12/24 05:29:24;;;;;;;39.53;13.50;;;10.60;90.40;;;;;;5038864;28;20095;-79
2021/12/24 05:31:50;;;;;;;43.22;13.02;;;10.60;90.30;;;;;;5038164;28;20100;-79
2021/12/24 05:34:18;;;;;;;45.80;12.18;;;10.60;90.40;;;;;;5039059;28;20029;-79
2021/12/24 05:36:45;;;;;;;41.13;12.40;;;10.60;90.40;;;;;;5055463;28;20029;-79
2021/12/24 05:39:12;;;;;;;31.55;11.82;;;10.50;90.60;;;;;;5058288;28;20029;-79
2021/12/24 05:41:39;;;;;;;41.80;12.65;;;10.60;90.70;;;;;;5056559;28;20025;-77
2021/12/24 05:44:08;;;;;;;43.10;14.63;;;10.60;90.70;;;;;;5038223;28;20017;-78
2021/12/24 05:46:34;;;;;;;51.70;14.77;;;10.60;90.60;;;;;;5038106;28;20548;-78
2021/12/24 05:48:59;;;;;;;52.97;13.88;;;10.60;90.50;;;;;;5037941;28;20457;-78
2021/12/24 05:51:25;;;;;;;44.15;13.55;;;10.50;90.70;;;;;;5037902;28;20022;-77
2021/12/24 05:53:51;;;;;;;39.83;12.35;;;10.60;90.60;;;;;;5037737;28;20029;-76
2021/12/24 05:56:16;;;;;;;39.65;11.57;;;10.60;90.70;;;;;;5037925;28;20013;-77
2021/12/24 05:58:42;;;;;;;47.95;14.02;;;10.60;90.30;;;;;;5037778;28;20065;-77
2021/12/24 06:01:08;;;;;;;33.33;10.73;;;10.50;90.40;;;;;;5037975;28;20028;-78
2021/12/24 06:03:34;;;;;;;31.50;10.02;;;10.50;90.50;;;;;;5054598;28;20501;-77
2021/12/24 06:06:00;;;;;;;29.58;11.63;;;10.50;90.30;;;;;;5055482;28;20021;-77
2021/12/24 06:08:25;;;;;;;53.10;10.20;;;10.50;90.70;;;;;;5039586;28;20026;-76
2021/12/24 06:10:51;;;;;;;28.27;8.52;;;10.40;90.90;;;;;;5057429;28;20081;-77
2021/12/24 06:13:17;;;;;;;31.25;9.23;;;10.40;91.20;;;;;;5046898;28;20030;-76
2021/12/24 06:15:46;;;;;;;46.25;9.27;;;10.40;91.30;;;;;;5037369;28;20021;-79
2021/12/24 06:18:21;;;;;;;35.35;7.40;;;10.50;91.10;;;;;;5037920;28;20021;-78
2021/12/24 06:20:47;;;;;;;29.33;8.10;;;10.40;91.20;;;;;;5037603;28;20024;-78
2021/12/24 06:23:13;;;;;;;16.95;5.85;;;10.50;91.20;;;;;;5037626;28;20036;-78
2021/12/24 06:25:39;;;;;;;33.25;7.80;;;10.40;91.00;;;;;;5037512;28;20013;-78
2021/12/24 06:28:05;;;;;;;30.80;7.75;;;10.40;91.30;;;;;;5037516;28;20398;-78
2021/12/24 06:30:31;;;;;;;39.58;8.60;;;10.50;91.10;;;;;;5037395;28;20584;-78
2021/12/24 06:32:58;;;;;;;35.13;9.63;;;10.50;91.10;;;;;;5036076;28;20077;-78
2021/12/24 06:35:24;;;;;;;38.97;9.90;;;10.50;91.00;;;;;;5045183;28;20112;-78
2021/12/24 06:37:51;;;;;;;18.98;6.45;;;10.50;90.90;;;;;;5053934;28;20075;-78
2021/12/24 06:40:17;;;;;;;24.98;9.23;;;10.40;90.70;;;;;;5055496;28;20029;-78
2021/12/24 06:42:43;;;;;;;29.13;9.15;;;10.30;90.90;;;;;;5056906;28;20380;-77
2021/12/24 06:45:09;;;;;;;34.70;9.75;;;10.30;91.30;;;;;;5051043;28;20455;-78
2021/12/24 06:47:35;;;;;;;52.10;9.65;;;10.30;91.10;;;;;;5056918;28;20021;-78
2021/12/24 06:50:01;;;;;;;24.05;7.25;;;10.30;91.10;;;;;;5042426;28;20108;-78
2021/12/24 06:52:32;;;;;;;31.73;8.93;;;10.30;91.10;;;;;;5044162;28;20025;-78
2021/12/24 06:54:58;;;;;;;31.42;6.80;;;10.30;90.90;;;;;;5056949;28;20063;-78
2021/12/24 06:57:25;;;;;;;34.72;8.60;;;10.20;91.20;;;;;;5056345;28;20029;-78
2021/12/24 06:59:51;;;;;;;20.05;7.28;;;10.20;91.10;;;;;;5055745;28;20037;-79
2021/12/24 07:02:16;;;;;;;23.02;6.47;;;10.20;90.90;;;;;;5052849;28;20475;-78
2021/12/24 07:04:42;;;;;;;24.00;9.38;;;10.30;91.20;;;;;;5036413;28;20030;-78
2021/12/24 07:07:08;;;;;;;20.77;6.47;;;10.30;91.00;;;;;;5036568;28;20030;-78
2021/12/24 07:09:34;;;;;;;28.85;8.55;;;10.30;91.10;;;;;;5046822;28;20025;-78
2021/12/24 07:12:00;;;;;;;25.05;7.22;;;10.40;91.00;;;;;;5048914;28;20061;-78
2021/12/24 07:14:25;;;;;;;34.13;8.65;;;10.40;90.90;;;;;;5041315;28;20108;-78
2021/12/24 07:16:51;;;;;;;36.35;8.30;;;10.40;91.00;;;;;;5050846;28;20041;-78
2021/12/24 07:19:17;;;;;;;44.33;9.35;;;10.40;90.80;;;;;;5036318;28;20029;-78
2021/12/24 07:21:42;;;;;;;19.88;7.53;;;10.50;90.80;;;;;;5036445;28;20078;-78
2021/12/24 07:24:09;;;;;;;32.83;8.48;;;10.40;90.60;;;;;;5034776;28;20029;-78
2021/12/24 07:26:37;;;;;;;35.13;9.38;;;10.50;91.00;;;;;;5042330;28;20517;-77
2021/12/24 07:29:04;;;;;;;43.25;13.43;;;10.50;90.70;;;;;;5054843;28;20029;-78
2021/12/24 07:31:29;;;;;;;44.15;12.82;;;10.50;90.60;;;;;;5049128;28;20100;-78
2021/12/24 07:33:55;;;;;;;36.28;9.88;;;10.50;90.50;;;;;;5034266;28;20021;-78
2021/12/24 07:36:21;;;;;;;33.70;8.13;;;10.40;90.20;;;;;;5035630;28;20483;-77
2021/12/24 07:38:46;;;;;;;34.05;8.65;;;10.40;90.00;;;;;;5051149;28;20021;-78
2021/12/24 07:41:14;;;;;;;32.10;9.52;;;10.40;90.50;;;;;;5036110;28;20022;-78
2021/12/24 07:43:42;;;;;;;30.40;9.68;;;10.50;90.70;;;;;;5044047;28;20028;-78
2021/12/24 07:46:09;;;;;;;37.78;9.18;;;10.40;90.70;;;;;;5052610;28;20035;-78
2021/12/24 07:48:44;;;;;;;29.13;7.45;;;10.30;90.80;;;;;;5054754;28;20021;-79
2021/12/24 07:53:35;;;;;;;36.97;13.02;;;10.30;90.80;;;;;;5052567;28;20733;-78
2021/12/24 07:56:01;;;;;;;43.42;11.02;;;10.30;91.00;;;;;;5054246;28;20028;-78
2021/12/24 07:58:27;;;;;;;45.60;13.18;;;10.30;91.10;;;;;;5054895;28;20501;-78
2021/12/24 08:00:53;;;;;;;32.67;7.90;;;10.30;91.20;;;;;;5054575;28;20035;-76
2021/12/24 08:03:19;;;;;;;58.47;11.15;;;10.30;91.20;;;;;;5053940;28;20032;-78
2021/12/24 08:05:46;;;;;;;51.97;12.27;;;10.30;91.20;;;;;;5054663;28;20535;-78
2021/12/24 08:08:12;;;;;;;58.08;11.70;;;10.30;91.50;;;;;;5053715;28;20080;-78
2021/12/24 08:10:41;;;;;;;55.10;14.02;;;10.30;91.50;;;;;;5055383;28;20549;-78
2021/12/24 08:13:07;;;;;;;64.13;13.70;;;10.30;91.20;;;;;;5052108;28;20029;-81
2021/12/24 09:36:58;;;;;;;32.15;12.75;;;9.20;94.80;;;;;;5068472;28;20429;-77
2021/12/24 09:39:24;;;;;;;33.30;12.30;;;9.30;94.60;;;;;;5022560;28;20088;-78
2021/12/24 09:41:50;;;;;;;39.17;15.90;;;9.60;94.30;;;;;;5018253;28;20037;-78
2021/12/24 09:44:16;;;;;;;38.63;16.60;;;9.80;93.80;;;;;;5012962;28;20041;-77
2021/12/24 09:46:43;;;;;;;43.35;15.05;;;10.10;93.60;;;;;;5013656;28;20088;-77
2021/12/24 09:49:13;;;;;;;36.08;14.93;;;10.20;93.40;;;;;;5012936;28;20164;-77
2021/12/24 09:51:41;;;;;;;;;;;10.30;92.60;;;;;;5027227;28;20033;-77
2021/12/24 09:54:12;;;;;;;37.85;16.42;;;10.40;92.50;;;;;;5031212;28;19955;-77
2021/12/24 09:56:38;;;;;;;38.25;13.38;;;10.40;92.00;;;;;;5026650;28;20041;-77
2021/12/24 09:59:05;;;;;;;30.13;12.80;;;10.50;91.70;;;;;;5029976;28;20400;-77
2021/12/24 10:01:38;;;;;;;32.67;13.18;;;10.40;91.30;;;;;;5029135;28;20026;-77
2021/12/24 10:04:13;;;;;;;29.77;12.38;;;10.50;91.40;;;;;;5028861;28;20056;-77
2021/12/24 10:06:48;;;;;;;36.85;11.35;;;10.40;90.90;;;;;;5031226;28;20065;-77
2021/12/24 10:09:15;;;;;;;32.00;13.07;;;10.40;90.90;;;;;;5040256;28;20073;-77
2021/12/24 10:11:55;;;;;;;34.38;13.43;;;10.40;90.90;;;;;;5032580;28;20025;-77
2021/12/24 10:14:28;;;;;;;39.35;14.05;;;10.50;90.70;;;;;;5062369;28;20044;-77
2021/12/24 10:16:54;;;;;;;28.20;10.25;;;10.50;90.60;;;;;;5032016;28;20102;-76
2021/12/24 10:19:21;;;;;;;35.60;11.55;;;10.50;90.30;;;;;;5031012;28;20024;-77
2021/12/24 10:21:57;;;;;;;37.85;13.45;;;10.60;90.50;;;;;;5028936;28;20061;-79
2021/12/24 10:24:26;;;;;;;41.72;14.38;;;10.60;90.30;;;;;;5023503;28;20026;-79
2021/12/24 10:26:54;;;;;;;39.42;14.02;;;10.60;90.10;;;;;;5029070;28;20039;-78
2021/12/24 10:29:38;;;;;;;36.35;13.30;;;10.70;90.40;;;;;;5023763;28;20026;-81
2021/12/24 10:32:15;;;;;;;43.33;14.73;;;10.80;89.90;;;;;;5030321;28;20075;-81
2021/12/24 10:34:42;;;;;;;34.95;12.63;;;10.80;89.90;;;;;;5030817;28;20033;-81
2021/12/24 10:37:24;;;;;;;28.13;10.68;;;10.80;89.80;;;;;;5031403;28;20021;-81
2021/12/24 10:39:59;;;;;;;32.30;12.88;;;10.80;89.80;;;;;;5030664;28;20022;-81
2021/12/24 10:42:37;;;;;;;41.53;14.15;;;10.60;89.90;;;;;;5030068;28;20028;-81
2021/12/24 10:45:08;;;;;;;37.38;13.07;;;10.70;90.10;;;;;;5023861;28;20044;-82
2021/12/24 10:47:40;;;;;;;39.85;13.32;;;10.70;90.10;;;;;;5016071;28;20449;-85
2021/12/24 10:52:56;;;;;;;47.38;14.23;;;10.70;89.90;;;;;;5009938;28;20033;-85
2021/12/24 10:55:25;;;;;;;42.45;13.93;;;10.80;89.90;;;;;;5013398;28;20026;-85
2021/12/24 10:57:52;;;;;;;39.08;12.05;;;10.80;89.90;;;;;;5016968;28;20037;-84
2021/12/24 11:00:36;;;;;;;42.83;13.30;;;10.80;89.70;;;;;;4999384;28;20065;-84
2021/12/24 11:03:09;;;;;;;41.38;12.82;;;10.90;89.80;;;;;;5003554;28;20030;-84
2021/12/24 11:05:37;;;;;;;34.47;13.30;;;11.20;89.60;;;;;;5015413;28;20064;-85
2021/12/24 11:08:12;;;;;;;34.08;12.02;;;11.30;89.00;;;;;;5009642;28;20037;-84
2021/12/24 11:10:43;;;;;;;36.75;13.55;;;11.40;88.60;;;;;;5013052;28;20373;-84
2021/12/24 11:13:17;;;;;;;29.60;11.55;;;11.50;88.60;;;;;;5015305;28;20072;-85
2021/12/24 11:15:51;;;;;;;36.15;12.00;;;11.40;88.70;;;;;;5016194;28;20030;-85
2021/12/24 11:18:24;;;;;;;40.10;12.73;;;11.40;88.70;;;;;;5025536;28;20022;-85
2021/12/24 11:21:04;;;;;;;39.70;12.88;;;11.40;88.80;;;;;;4999007;28;20033;-84
2021/12/24 11:23:33;;;;;;;27.33;10.07;;;11.30;88.70;;;;;;5014972;28;20018;-85
2021/12/24 11:26:03;;;;;;;39.38;13.02;;;11.20;88.80;;;;;;5015338;28;20030;-84
2021/12/24 11:28:31;;;;;;;37.63;12.38;;;11.20;88.90;;;;;;5004247;28;20030;-85
2021/12/24 11:30:59;;;;;;;25.10;9.07;;;11.20;88.70;;;;;;5005071;28;20420;-83
2021/12/24 11:33:31;;;;;;;37.58;13.73;;;11.20;88.90;;;;;;4997576;28;20026;-79
2021/12/24 11:36:00;;;;;;;46.35;13.60;;;11.20;89.00;;;;;;4999377;28;20163;-84
2021/12/24 11:38:29;;;;;;;34.70;12.90;;;11.20;89.10;;;;;;5012522;28;20488;-83
2021/12/24 11:40:57;;;;;;;34.78;11.05;;;11.30;89.10;;;;;;5010008;28;20037;-83
2021/12/24 11:43:27;;;;;;;30.77;11.20;;;11.30;88.60;;;;;;5016761;28;20029;-84
2021/12/24 11:46:00;;;;;;;35.25;11.93;;;11.40;88.50;;;;;;5018058;28;20030;-84
2021/12/24 11:48:33;;;;;;;37.33;13.73;;;11.60;88.80;;;;;;5016662;28;20030;-81
2021/12/24 11:51:07;;;;;;;32.42;12.05;;;11.70;88.50;;;;;;5013575;28;20041;-83
2021/12/24 11:53:33;;;;;;;37.17;12.90;;;11.70;88.30;;;;;;5016587;28;20142;-83
2021/12/24 11:56:07;;;;;;;23.70;11.63;;;11.60;88.30;;;;;;5015752;28;20041;-82
2021/12/24 11:58:40;;;;;;;28.90;10.73;;;11.50;87.80;;;;;;5014386;28;20030;-83
2021/12/24 12:01:06;;;;;;;32.65;12.52;;;11.60;88.00;;;;;;5015924;28;20547;-83
2021/12/24 12:03:36;;;;;;;32.80;12.30;;;11.60;88.10;;;;;;5008286;28;20022;-84
2021/12/24 12:06:08;;;;;;;;;;;11.60;88.40;;;;;;5017048;28;20026;-84
2021/12/24 12:08:37;;;;;;;33.38;13.40;;;11.50;88.30;;;;;;5016068;28;19916;-83
2021/12/24 12:11:21;;;;;;;35.53;14.43;;;11.50;88.40;;;;;;5036077;28;20472;-83
2021/12/24 12:13:53;;;;;;;26.13;10.82;;;11.40;88.80;;;;;;5011381;28;20036;-83
2021/12/24 12:16:27;;;;;;;29.88;13.13;;;11.40;88.70;;;;;;5020526;28;20068;-84
2021/12/24 12:22:15;;;;;;;33.88;14.25;;;11.40;89.20;;;;;;5009141;28;20441;-83
2021/12/24 12:27:26;;;;;;;40.17;13.52;;;11.40;89.80;;;;;;5005458;28;20116;-83
2021/12/24 12:29:51;;;;;;;30.15;13.82;;;11.40;89.50;;;;;;5015363;28;20022;-85
2021/12/24 12:32:17;;;;;;;26.80;12.65;;;11.40;89.00;;;;;;5015891;28;20044;-80
2021/12/24 12:34:43;;;;;;;20.67;9.18;;;11.50;89.20;;;;;;5015555;28;20017;-81
2021/12/24 12:37:11;;;;;;;31.80;13.95;;;11.50;88.80;;;;;;5018217;28;20049;-81
2021/12/24 12:39:37;;;;;;;27.92;13.57;;;11.70;88.80;;;;;;5012374;28;20022;-86
2021/12/24 12:42:06;;;;;;;30.70;13.95;;;11.70;88.70;;;;;;5014407;28;20079;-87
2021/12/24 12:44:39;;;;;;;28.13;13.18;;;11.70;88.80;;;;;;5007264;28;20052;-87
2021/12/24 12:47:50;;;;;;;30.95;13.27;;;11.60;88.50;;;;;;5015450;28;20098;-88
2021/12/24 12:54:01;;;;;;;;;;;;;;;;;;;;;
2021/12/24 13:05:05;;;;;;;;;;;;;;;;;;;;;
2021/12/24 13:07:31;;;;;;;23.42;13.00;;;11.20;89.00;;;;;;4848197;29;20042;-85
2021/12/24 13:10:05;;;;;;;21.70;11.30;;;11.30;89.30;;;;;;4894835;29;20218;-81
2021/12/24 13:12:31;;;;;;;25.60;14.55;;;11.30;89.00;;;;;;4882584;29;20488;-80
2021/12/24 13:15:01;;;;;;;27.67;13.88;;;11.30;89.20;;;;;;4932663;29;20055;-81
2021/12/24 13:17:33;;;;;;;28.48;13.82;;;11.40;89.20;;;;;;4954088;28;20068;-81
2021/12/24 13:20:12;;;;;;;31.52;14.70;;;11.50;89.20;;;;;;4999839;28;20030;-81
2021/12/24 13:22:37;;;;;;;24.83;13.38;;;11.50;89.00;;;;;;5013108;28;20049;-81
2021/12/24 13:25:09;;;;;;;27.05;14.40;;;11.50;88.90;;;;;;5015248;28;20473;-81
2021/12/24 13:27:41;;;;;;;35.15;16.50;;;11.40;88.80;;;;;;5014580;28;20049;-81
2021/12/24 13:30:20;;;;;;;25.00;13.32;;;11.40;89.00;;;;;;4999933;28;20023;-82
2021/12/24 13:32:49;;;;;;;33.15;13.18;;;11.30;89.10;;;;;;5000278;28;20049;-82
2021/12/24 13:35:19;;;;;;;23.77;13.00;;;11.30;89.20;;;;;;5004907;28;20054;-82
2021/12/24 13:37:46;;;;;;;33.80;14.95;;;11.20;89.00;;;;;;5012557;28;20060;-82
2021/12/24 13:40:15;;;;;;;27.60;13.38;;;11.20;89.50;;;;;;5008763;28;20463;-82
2021/12/24 13:42:42;;;;;;;24.08;12.65;;;11.20;89.40;;;;;;4994292;28;20037;-82
2021/12/24 13:45:08;;;;;;;24.20;12.88;;;11.20;89.30;;;;;;5001137;28;21320;-82
2021/12/24 13:47:53;;;;;;;27.30;12.18;;;11.20;89.20;;;;;;5007423;28;20033;-82
2021/12/24 13:55:39;;;;;;;27.02;12.68;;;11.10;89.20;;;;;;5009176;28;20037;-81
2021/12/24 13:58:08;;;;;;;;;;;11.10;89.60;;;;;;5010517;28;20034;-81
2021/12/24 14:00:36;;;;;;;27.23;12.85;;;11.00;89.80;;;;;;5013140;28;19909;-82
2021/12/24 14:03:07;;;;;;;26.23;12.43;;;11.10;89.30;;;;;;5014632;28;20053;-82
2021/12/24 14:05:32;;;;;;;;;;;11.10;89.40;;;;;;5000949;28;21083;-82
2021/12/24 14:08:09;;;;;;;17.00;11.10;;;11.00;89.70;;;;;;5009008;28;19913;-82
2021/12/24 14:10:35;;;;;;;20.05;11.18;;;11.00;89.60;;;;;;5000338;28;20023;-83
2021/12/24 14:13:12;;;;;;;18.25;10.07;;;11.10;89.60;;;;;;5004941;28;20028;-83
2021/12/24 14:16:36;;;;;;;27.50;12.75;;;11.00;89.20;;;;;;5005436;28;20026;-83
2021/12/24 14:24:11;;;;;;;26.73;11.70;;;11.10;89.30;;;;;;5017689;28;20534;-82
2021/12/24 14:26:50;;;;;;;20.70;13.32;;;11.20;89.10;;;;;;5017820;28;20648;-84
2021/12/24 14:29:42;;;;;;;31.33;15.20;;;11.20;88.80;;;;;;5014553;28;20042;-89
2021/12/24 14:32:14;;;;;;;31.65;15.77;;;11.20;89.10;;;;;;5015382;28;20523;-88
2021/12/24 14:34:42;;;;;;;18.55;11.35;;;11.20;89.40;;;;;;5012668;28;20085;-89
2021/12/24 14:37:11;;;;;;;23.00;11.55;;;11.10;88.90;;;;;;4999009;28;20085;-89
2021/12/24 14:39:43;;;;;;;23.55;13.63;;;11.10;89.40;;;;;;4998946;28;20053;-89
2021/12/24 14:42:14;;;;;;;21.40;13.50;;;11.10;89.30;;;;;;5009526;28;20030;-89
2021/12/24 14:44:41;;;;;;;24.50;12.40;;;11.20;89.30;;;;;;5017409;28;20492;-87
2021/12/24 14:47:08;;;;;;;28.27;11.35;;;11.20;89.30;;;;;;5028719;28;20506;-91
2021/12/24 14:49:36;;;;;;;18.05;10.80;;;11.20;89.20;;;;;;5038416;28;20108;-84
2021/12/24 14:52:23;;;;;;;19.27;11.45;;;11.20;89.20;;;;;;5021137;28;20014;-83
2021/12/24 14:55:16;;;;;;;22.90;13.57;;;11.20;89.30;;;;;;5008702;28;20030;-84
2021/12/24 14:58:00;;;;;;;24.50;13.75;;;11.20;89.20;;;;;;5007641;28;20079;-90
2021/12/24 15:00:33;;;;;;;30.50;15.30;;;11.20;89.20;;;;;;5012764;28;20033;-86
2021/12/24 15:03:06;;;;;;;31.00;15.68;;;11.20;89.30;;;;;;5005222;28;20110;-87
2021/12/24 15:05:35;;;;;;;31.27;15.45;;;11.20;89.40;;;;;;5014727;28;20058;-85
2021/12/24 15:08:20;;;;;;;27.27;15.25;;;11.20;89.30;;;;;;5012924;28;20025;-80
2021/12/24 15:10:55;;;;;;;29.90;15.52;;;11.30;89.40;;;;;;5002427;28;20018;-80
2021/12/24 15:13:22;;;;;;;30.42;14.45;;;11.30;89.30;;;;;;5012528;28;20200;-79
2021/12/24 15:15:50;;;;;;;25.90;13.15;;;11.20;89.20;;;;;;5014279;28;20148;-80
2021/12/24 15:18:16;;;;;;;19.83;11.85;;;11.20;89.30;;;;;;5013615;28;20492;-80
2021/12/24 15:20:43;;;;;;;33.78;15.98;;;11.20;89.30;;;;;;5015765;28;20061;-80
2021/12/24 15:23:09;;;;;;;30.98;15.27;;;11.20;89.40;;;;;;5015324;28;20428;-80
2021/12/24 15:25:36;;;;;;;24.73;13.63;;;11.20;89.40;;;;;;5017805;28;20033;-80
2021/12/24 15:28:09;;;;;;;32.40;17.60;;;11.10;89.40;;;;;;5017641;28;20022;-80
2021/12/24 15:30:36;;;;;;;36.97;19.58;;;11.20;89.60;;;;;;5013937;28;20040;-80
2021/12/24 15:33:03;;;;;;;31.27;16.77;;;11.20;89.70;;;;;;5003819;28;20026;-80
2021/12/24 15:35:29;;;;;;;34.85;18.40;;;11.20;89.50;;;;;;5012340;28;20058;-80
2021/12/24 15:37:55;;;;;;;31.80;17.30;;;11.20;89.60;;;;;;5012878;28;20033;-81
2021/12/24 15:40:21;;;;;;;26.58;15.23;;;11.10;89.70;;;;;;5006028;28;20083;-81
2021/12/24 15:42:49;;;;;;;28.10;17.15;;;11.20;89.70;;;;;;5013915;28;20025;-80
2021/12/24 15:45:15;;;;;;;33.58;16.98;;;11.20;89.70;;;;;;5011502;28;20113;-80
2021/12/24 15:47:40;;;;;;;30.13;16.58;;;11.20;89.60;;;;;;5013329;28;20026;-80
2021/12/24 15:50:07;;;;;;;37.85;18.15;;;11.20;89.70;;;;;;5015732;28;20388;-80
2021/12/24 15:52:32;;;;;;;32.78;15.68;;;11.20;89.50;;;;;;5014210;28;20030;-80
2021/12/24 15:54:58;;;;;;;30.10;15.43;;;11.20;89.40;;;;;;5014276;28;20036;-80
2021/12/24 15:57:24;;;;;;;28.77;14.60;;;11.20;89.50;;;;;;5015811;28;20042;-80
2021/12/24 15:59:49;;;;;;;30.65;14.40;;;11.10;89.60;;;;;;5019719;28;20021;-80
2021/12/24 16:02:15;;;;;;;28.45;15.25;;;11.10;89.50;;;;;;5013090;28;20500;-80
2021/12/24 16:04:41;;;;;;;28.95;15.15;;;11.00;89.60;;;;;;5001770;28;20053;-82
2021/12/24 16:07:08;;;;;;;31.52;15.20;;;11.10;89.60;;;;;;5015983;28;20040;-82
2021/12/24 16:09:34;;;;;;;30.02;14.80;;;11.00;89.50;;;;;;5018325;28;20134;-81
2021/12/24 16:11:59;;;;;;;32.42;14.73;;;11.00;89.60;;;;;;5011599;28;20054;-85
2021/12/24 16:14:27;;;;;;;31.92;14.52;;;11.00;89.70;;;;;;5002273;28;20467;-81